Tula, Russia
Current Conditions -  °F | °C
As of 10:00 PM on Friday 21 Nov 2014 (Local Time) from UUDD Reporting Station
Haze Haze  
Wind Chill: 18°   Ceiling: Unl
Heat Index: 18°   Visibility: 1.8mi
Dew Point: 16°   Wind: 2mph
Humidity: 93%   Direction: NA
Pressure: 30.48"   Gusts: NA
Location:  54.2°N, 37.61°E
Report Text: UUDD 211900Z VRB01MPS 2900 BR FEW200 M08/M09 Q1032 3229009582290095 TEMPO 1000
Loading
Personal Weather Stations






























Interactive Weather Map New forecast layout! Learn more

10-Day Weather Forecast

Advertisements
Track Severe Weather on mobile